createdAt,value
2018-11-14T00:01:01.037Z,101984.84
2018-11-14T00:03:28.429Z,101981.53
2018-11-14T00:05:55.825Z,101987.73
2018-11-14T00:08:23.229Z,101999.56
2018-11-14T00:10:50.965Z,101997.88
2018-11-14T00:13:18.529Z,102005.52
2018-11-14T00:15:45.894Z,102010.78
2018-11-14T00:18:13.323Z,102006.53
2018-11-14T00:20:40.795Z,102018.05
2018-11-14T00:23:08.234Z,102010.08
2018-11-14T00:25:35.845Z,102000.80
2018-11-14T00:28:03.757Z,102011.59
2018-11-14T00:30:30.875Z,102012.47
2018-11-14T00:32:58.384Z,101999.41
2018-11-14T00:35:25.811Z,102005.27
2018-11-14T00:37:53.185Z,102010.51
2018-11-14T00:40:21.135Z,102006.67
2018-11-14T00:42:48.859Z,102021.59
2018-11-14T00:45:17.593Z,102008.73
2018-11-14T00:47:46.088Z,102018.89
2018-11-14T00:50:14.354Z,102019.30
2018-11-14T00:52:42.438Z,102014.77
2018-11-14T00:55:12.978Z,102023.14
2018-11-14T00:57:40.958Z,102024.17
2018-11-14T01:00:10.875Z,102019.44
2018-11-14T01:02:38.540Z,102026.38
2018-11-14T01:05:06.859Z,102026.61
2018-11-14T01:07:34.384Z,102020.78
2018-11-14T01:10:01.835Z,102024.36
2018-11-14T01:12:29.400Z,102023.90
2018-11-14T01:14:56.859Z,102025.47
2018-11-14T01:17:24.394Z,102030.56
2018-11-14T01:19:51.810Z,102034.58
2018-11-14T01:22:19.357Z,102040.14
2018-11-14T01:24:46.819Z,102046.02
2018-11-14T01:27:14.171Z,102039.45
2018-11-14T01:29:41.627Z,102053.14
2018-11-14T01:32:09.321Z,102048.32
2018-11-14T01:34:36.642Z,102049.77
2018-11-14T01:37:04.643Z,102043.91
2018-11-14T01:39:32.137Z,102048.27
2018-11-14T01:41:59.689Z,102047.13
2018-11-14T01:44:26.983Z,102043.36
2018-11-14T01:46:54.444Z,102037.18
2018-11-14T01:49:21.880Z,102040.33
2018-11-14T01:51:49.325Z,102032.99
2018-11-14T01:54:16.745Z,102039.16
2018-11-14T01:56:44.145Z,102046.15
2018-11-14T01:59:11.566Z,102034.17
2018-11-14T02:01:39.553Z,102045.45
2018-11-14T02:04:06.927Z,102045.23
2018-11-14T02:06:34.405Z,102047.47
2018-11-14T02:09:01.916Z,102049.42
2018-11-14T02:11:29.542Z,102047.00
2018-11-14T02:13:57.553Z,102047.47
2018-11-14T02:16:25.188Z,102041.23
2018-11-14T02:18:52.656Z,102048.06
2018-11-14T02:21:20.068Z,102045.20
2018-11-14T02:23:47.589Z,102039.45
2018-11-14T02:26:14.921Z,102047.97
2018-11-14T02:28:42.598Z,102043.19
2018-11-14T02:31:10.077Z,102050.36
2018-11-14T02:33:37.544Z,102049.23
2018-11-14T02:36:05.197Z,102047.13
2018-11-14T02:38:32.741Z,102048.80
2018-11-14T02:41:00.166Z,102038.69
2018-11-14T02:43:27.673Z,102048.70
2018-11-14T02:45:55.042Z,102046.21
2018-11-14T02:48:22.339Z,102045.15
2018-11-14T02:50:59.876Z,102049.36
2018-11-14T02:53:27.192Z,102039.74
2018-11-14T02:56:06.994Z,102048.39
2018-11-14T02:58:34.425Z,102040.52
2018-11-14T03:01:01.773Z,102034.11
2018-11-14T03:03:29.173Z,102034.14
2018-11-14T03:05:56.481Z,102039.05
2018-11-14T03:08:23.964Z,102043.83
2018-11-14T03:10:51.560Z,102040.41
2018-11-14T03:13:19.003Z,102044.77
2018-11-14T03:15:46.375Z,102052.81
2018-11-14T03:18:13.800Z,102052.67
2018-11-14T03:20:41.177Z,102051.95
2018-11-14T03:23:08.508Z,102039.08
2018-11-14T03:25:35.892Z,102033.05
2018-11-14T03:28:03.370Z,102039.41
2018-11-14T03:30:30.732Z,102031.27
2018-11-14T03:32:58.079Z,102030.75
2018-11-14T03:35:30.056Z,102030.05
2018-11-14T03:37:57.444Z,102036.41
2018-11-14T03:40:24.827Z,102031.83
2018-11-14T03:42:52.199Z,102038.84
2018-11-14T03:45:19.518Z,102041.33
2018-11-14T03:47:47.404Z,102047.19
2018-11-14T03:50:14.727Z,102039.41
2018-11-14T03:52:42.137Z,102038.82
2018-11-14T03:55:09.660Z,102048.28
2018-11-14T03:57:37.129Z,102048.52
2018-11-14T04:00:07.716Z,102047.02
2018-11-14T04:02:35.092Z,102044.55
2018-11-14T04:05:02.452Z,102044.22
2018-11-14T04:07:29.850Z,102042.05
2018-11-14T04:09:57.245Z,102043.34
2018-11-14T04:12:24.630Z,102039.44
2018-11-14T04:14:51.996Z,102051.70
2018-11-14T04:17:19.346Z,102040.05
2018-11-14T04:19:46.804Z,102036.58
2018-11-14T04:22:14.189Z,102040.64
2018-11-14T04:24:41.571Z,102036.36
2018-11-14T04:27:09.019Z,102030.54
2018-11-14T04:29:36.423Z,102030.61
2018-11-14T04:32:04.197Z,102035.22
2018-11-14T04:34:31.715Z,102030.84
2018-11-14T04:36:59.131Z,102033.45
2018-11-14T04:39:26.653Z,102027.72
2018-11-14T04:41:54.181Z,102030.48
2018-11-14T04:44:21.628Z,102031.99
2018-11-14T04:46:49.074Z,102026.55
2018-11-14T04:49:16.493Z,102028.18
2018-11-14T04:51:44.097Z,102024.22
2018-11-14T04:54:12.409Z,102026.37
2018-11-14T04:56:39.936Z,102020.98
2018-11-14T04:59:07.375Z,102021.89
2018-11-14T05:01:34.851Z,102026.53
2018-11-14T05:04:02.207Z,102018.55
2018-11-14T05:06:29.753Z,102023.63
2018-11-14T05:08:57.192Z,102026.55
2018-11-14T05:11:24.634Z,102025.35
2018-11-14T05:13:52.137Z,102029.03
2018-11-14T05:16:19.572Z,102040.23
2018-11-14T05:18:47.202Z,102038.72
2018-11-14T05:21:14.646Z,102036.94
2018-11-14T05:23:42.238Z,102033.77
2018-11-14T05:26:09.697Z,102032.86
2018-11-14T05:28:37.130Z,102027.19
2018-11-14T05:31:04.845Z,102030.25
2018-11-14T05:33:32.793Z,102037.24
2018-11-14T05:36:00.227Z,102026.20
2018-11-14T05:38:27.735Z,102019.39
2018-11-14T05:40:55.166Z,102022.75
2018-11-14T05:43:22.578Z,102026.03
2018-11-14T05:45:49.910Z,102033.38
2018-11-14T05:48:23.480Z,102041.64
2018-11-14T05:50:50.908Z,102037.84
2018-11-14T05:53:18.434Z,102054.81
2018-11-14T05:55:45.759Z,102053.08
2018-11-14T05:58:13.124Z,102054.09
2018-11-14T06:00:40.519Z,102056.91
2018-11-14T06:03:07.977Z,102067.73
2018-11-14T06:05:35.307Z,102068.83
2018-11-14T06:08:02.729Z,102070.35
2018-11-14T06:10:30.139Z,102059.25
2018-11-14T06:12:57.550Z,102061.38
2018-11-14T06:15:25.011Z,102054.45
2018-11-14T06:17:53.749Z,102047.94
2018-11-14T06:20:21.925Z,102051.81
2018-11-14T06:22:50.356Z,102046.60
2018-11-14T06:25:21.564Z,102042.41
2018-11-14T06:27:49.866Z,102057.94
2018-11-14T06:30:17.304Z,102058.62
2018-11-14T06:32:44.664Z,102051.16
2018-11-14T06:35:12.539Z,102059.98
2018-11-14T06:37:39.975Z,102074.80
2018-11-14T06:40:09.008Z,102083.38
2018-11-14T06:42:36.466Z,102076.21
2018-11-14T06:45:04.380Z,102081.32
2018-11-14T06:47:31.690Z,102089.92
2018-11-14T06:49:59.182Z,102084.16
2018-11-14T06:52:26.625Z,102089.06
2018-11-14T06:54:54.210Z,102090.09
2018-11-14T06:57:21.639Z,102090.99
2018-11-14T06:59:49.527Z,102093.22
2018-11-14T07:02:17.876Z,102090.52
2018-11-14T07:04:45.345Z,102088.95
2018-11-14T07:07:12.764Z,102090.31
2018-11-14T07:09:40.159Z,102098.05
2018-11-14T07:12:07.537Z,102096.67
2018-11-14T07:14:34.910Z,102104.73
2018-11-14T07:17:02.599Z,102101.11
2018-11-14T07:19:30.044Z,102104.78
2018-11-14T07:21:57.464Z,102101.52
2018-11-14T07:24:24.847Z,102093.02
2018-11-14T07:26:53.265Z,102095.13
2018-11-14T07:29:20.587Z,102092.76
2018-11-14T07:31:47.987Z,102092.85
2018-11-14T07:34:15.344Z,102088.77
2018-11-14T07:36:42.789Z,102086.38
2018-11-14T07:39:10.157Z,102084.16
2018-11-14T07:41:39.805Z,102089.64
2018-11-14T07:44:07.426Z,102092.73
2018-11-14T07:46:35.960Z,102098.58
2018-11-14T07:49:03.797Z,102090.48
2018-11-14T07:51:31.748Z,102093.11
2018-11-14T07:53:59.368Z,102093.81
2018-11-14T07:56:27.362Z,102108.63
2018-11-14T07:58:54.724Z,102109.31
2018-11-14T08:01:22.558Z,102107.13
2018-11-14T08:03:49.937Z,102114.75
2018-11-14T08:06:17.513Z,102111.50
2018-11-14T08:08:45.434Z,102115.95
2018-11-14T08:11:12.803Z,102117.34
2018-11-14T08:13:42.853Z,102118.03
2018-11-14T08:16:10.268Z,102109.97
2018-11-14T08:18:38.387Z,102120.17
2018-11-14T08:21:06.438Z,102120.95
2018-11-14T08:23:34.213Z,102127.91
2018-11-14T08:26:01.660Z,102119.07
2018-11-14T08:28:29.023Z,102127.05
2018-11-14T08:30:56.383Z,102125.53
2018-11-14T08:33:23.849Z,102129.11
2018-11-14T08:35:51.224Z,102126.24
2018-11-14T08:38:18.701Z,102126.73
2018-11-14T08:40:46.131Z,102132.44
2018-11-14T08:43:13.529Z,102143.72
2018-11-14T08:45:40.905Z,102136.25
2018-11-14T08:48:08.976Z,102131.66
2018-11-14T08:50:36.331Z,102133.02
2018-11-14T08:53:03.991Z,102135.27
2018-11-14T08:55:31.439Z,102125.34
2018-11-14T08:57:59.056Z,102126.12
2018-11-14T09:00:27.506Z,102128.89
2018-11-14T09:02:55.045Z,102131.50
2018-11-14T09:05:22.416Z,102131.53
2018-11-14T09:07:50.241Z,102129.95
2018-11-14T09:10:20.005Z,102131.25
2018-11-14T09:12:47.919Z,102127.01
2018-11-14T09:15:18.586Z,102130.02
2018-11-14T09:17:46.200Z,102134.03
2018-11-14T09:20:15.107Z,102141.20
2018-11-14T09:22:42.936Z,102142.09
2018-11-14T09:25:12.708Z,102131.57
2018-11-14T09:27:40.506Z,102138.56
2018-11-14T09:30:12.507Z,102140.11
2018-11-14T09:32:40.038Z,102142.97
2018-11-14T09:35:08.876Z,102151.83
2018-11-14T09:37:36.536Z,102158.12
2018-11-14T09:40:05.350Z,102158.09
2018-11-14T09:42:32.782Z,102164.95
2018-11-14T09:45:00.255Z,102162.06
2018-11-14T09:47:27.680Z,102154.84
2018-11-14T09:49:55.064Z,102164.59
2018-11-14T09:52:22.751Z,102154.81
2018-11-14T09:54:50.214Z,102157.24
2018-11-14T09:57:17.632Z,102157.70
2018-11-14T09:59:45.069Z,102161.44
2018-11-14T10:02:12.551Z,102171.00
2018-11-14T10:04:39.922Z,102152.16
2018-11-14T10:07:07.918Z,102165.85
2018-11-14T10:09:35.297Z,102156.11
2018-11-14T10:12:02.775Z,102160.08
2018-11-14T10:14:30.157Z,102154.34
2018-11-14T10:16:57.515Z,102152.89
2018-11-14T10:19:24.997Z,102150.77
2018-11-14T10:21:52.568Z,102150.98
2018-11-14T10:24:20.003Z,102152.67
2018-11-14T10:26:47.429Z,102153.00
2018-11-14T10:29:14.989Z,102152.78
2018-11-14T10:31:42.468Z,102155.07
2018-11-14T10:34:09.873Z,102148.83
2018-11-14T10:36:37.192Z,102154.20
2018-11-14T10:39:08.197Z,102150.06
2018-11-14T10:41:35.581Z,102140.94
2018-11-14T10:44:03.104Z,102140.59
2018-11-14T10:46:30.568Z,102140.72
2018-11-14T10:48:57.945Z,102145.70
2018-11-14T10:51:26.427Z,102152.17
2018-11-14T10:53:53.811Z,102151.25
2018-11-14T10:58:55.393Z,102145.67
2018-11-14T11:01:28.446Z,102147.67
2018-11-14T11:04:01.572Z,102144.73
2018-11-14T11:06:35.455Z,102141.20
2018-11-14T11:09:14.012Z,102151.56
2018-11-14T11:11:47.771Z,102145.34
2018-11-14T11:14:21.160Z,102148.28
2018-11-14T11:16:54.173Z,102145.47
2018-11-14T11:19:24.023Z,102144.45
2018-11-14T11:21:51.486Z,102137.75
2018-11-14T11:24:20.272Z,102136.95
2018-11-14T11:26:47.618Z,102137.84
2018-11-14T11:29:14.976Z,102126.98
2018-11-14T11:31:42.455Z,102124.30
2018-11-14T11:34:10.532Z,102123.80
2018-11-14T11:36:38.270Z,102120.77
2018-11-14T11:39:07.996Z,102111.75
2018-11-14T11:41:35.662Z,102104.66
2018-11-14T11:44:02.992Z,102092.52
2018-11-14T11:46:30.378Z,102093.61
2018-11-14T11:48:57.764Z,102095.34
2018-11-14T11:51:25.264Z,102097.70
2018-11-14T11:53:52.752Z,102090.02
2018-11-14T11:56:20.105Z,102082.44
2018-11-14T11:58:47.514Z,102080.20
2018-11-14T12:01:14.879Z,102076.12
2018-11-14T12:03:42.303Z,102074.76
2018-11-14T12:06:10.172Z,102081.06
2018-11-14T12:08:37.411Z,102070.41
2018-11-14T12:11:06.243Z,102077.02
2018-11-14T12:13:33.779Z,102065.58
2018-11-14T12:16:02.015Z,102063.96
2018-11-14T12:18:29.227Z,102058.29
2018-11-14T12:20:56.954Z,102059.73
2018-11-14T12:23:27.716Z,102063.03
2018-11-14T12:25:55.374Z,102069.29
2018-11-14T12:28:22.801Z,102070.33
2018-11-14T12:30:50.337Z,102071.20
2018-11-14T12:33:17.702Z,102068.25
2018-11-14T12:35:45.184Z,102059.42
2018-11-14T12:38:13.037Z,102062.48
2018-11-14T12:40:40.373Z,102062.64
2018-11-14T12:43:08.346Z,102060.44
2018-11-14T12:45:35.779Z,102055.82
2018-11-14T12:48:03.178Z,102053.87
2018-11-14T12:50:30.584Z,102053.14
2018-11-14T12:52:58.172Z,102051.76
2018-11-14T12:55:25.663Z,102050.09
2018-11-14T12:57:53.093Z,102047.70
2018-11-14T13:00:21.132Z,102049.58
2018-11-14T13:02:48.458Z,102045.55
2018-11-14T13:05:16.071Z,102039.39
2018-11-14T13:07:43.686Z,102033.66
2018-11-14T13:10:15.509Z,102027.25
2018-11-14T13:12:43.781Z,102031.53
2018-11-14T13:15:12.332Z,102032.56
2018-11-14T13:17:40.252Z,102034.67
2018-11-14T13:20:09.295Z,102031.52
2018-11-14T13:22:36.655Z,102032.44
2018-11-14T13:25:05.459Z,102043.31
2018-11-14T13:27:32.913Z,102048.25
2018-11-14T13:30:00.285Z,102043.98
2018-11-14T13:32:27.977Z,102042.96
2018-11-14T13:34:55.448Z,102041.24
2018-11-14T13:37:22.843Z,102037.83
2018-11-14T13:39:50.265Z,102038.77
2018-11-14T13:42:17.674Z,102044.77
2018-11-14T13:44:45.016Z,102036.91
2018-11-14T13:47:12.502Z,102032.05
2018-11-14T13:49:40.081Z,102031.45
2018-11-14T13:52:07.403Z,102029.59
2018-11-14T13:54:34.735Z,102038.97
2018-11-14T13:57:03.136Z,102032.86
2018-11-14T13:59:30.591Z,102034.47
2018-11-14T14:01:58.012Z,102030.69
2018-11-14T14:04:25.411Z,102031.62
2018-11-14T14:06:52.796Z,102038.25
2018-11-14T14:09:20.406Z,102051.49
2018-11-14T14:11:47.760Z,102055.27
2018-11-14T14:14:17.062Z,102065.07
2018-11-14T14:16:44.970Z,102061.96
2018-11-14T14:19:12.820Z,102061.73
2018-11-14T14:21:40.210Z,102059.84
2018-11-14T14:24:07.838Z,102056.87
2018-11-14T14:26:35.953Z,102041.88
2018-11-14T14:29:03.784Z,102044.09
2018-11-14T14:31:31.299Z,102042.75
2018-11-14T14:33:58.658Z,102042.77
2018-11-14T14:36:26.117Z,102044.77
2018-11-14T14:38:53.534Z,102047.08
2018-11-14T14:41:20.873Z,102043.70
2018-11-14T14:43:48.327Z,102040.28
2018-11-14T14:46:15.698Z,102037.51
2018-11-14T14:48:43.108Z,102043.40
2018-11-14T14:51:10.504Z,102043.11
2018-11-14T14:53:45.072Z,102049.63
2018-11-14T14:56:12.529Z,102051.82
2018-11-14T14:58:39.953Z,102048.98
2018-11-14T15:01:07.411Z,102045.34
2018-11-14T15:03:34.899Z,102051.04
2018-11-14T15:06:03.214Z,102054.77
2018-11-14T15:08:30.748Z,102050.52
2018-11-14T15:10:58.187Z,102049.41
2018-11-14T15:13:25.576Z,102055.45
2018-11-14T15:15:53.054Z,102060.37
2018-11-14T15:18:20.461Z,102056.14
2018-11-14T15:20:47.808Z,102050.92
2018-11-14T15:23:15.350Z,102053.47
2018-11-14T15:25:42.764Z,102047.80
2018-11-14T15:28:10.184Z,102045.05
2018-11-14T15:30:37.670Z,102046.44
2018-11-14T15:33:05.000Z,102049.59
2018-11-14T15:35:32.432Z,102048.38
2018-11-14T15:37:59.807Z,102038.56
2018-11-14T15:40:28.567Z,102039.69
2018-11-14T15:42:57.015Z,102035.67
2018-11-14T15:45:26.752Z,102036.64
2018-11-14T15:47:54.274Z,102036.60
2018-11-14T15:50:24.102Z,102028.99
2018-11-14T15:52:52.552Z,102036.95
2018-11-14T15:55:20.474Z,102040.02
2018-11-14T15:57:48.472Z,102029.75
2018-11-14T16:00:22.971Z,102025.50
2018-11-14T16:02:50.469Z,102029.61
2018-11-14T16:05:19.338Z,102023.55
2018-11-14T16:07:48.050Z,102029.61
2018-11-14T16:10:16.924Z,102016.34
2018-11-14T16:12:44.902Z,102020.16
2018-11-14T16:15:13.782Z,102019.09
2018-11-14T16:17:41.671Z,102016.22
2018-11-14T16:20:14.337Z,102019.19
2018-11-14T16:22:41.681Z,102016.60
2018-11-14T16:25:11.466Z,102013.87
2018-11-14T16:27:39.285Z,102010.33
2018-11-14T16:30:09.831Z,102016.03
2018-11-14T16:32:37.167Z,102018.28
2018-11-14T16:35:04.735Z,102014.80
2018-11-14T16:37:32.159Z,102022.65
2018-11-14T16:40:00.330Z,102021.43
2018-11-14T16:42:27.858Z,102019.91
2018-11-14T16:44:55.328Z,102019.69
2018-11-14T16:47:23.239Z,102015.08
2018-11-14T16:49:50.595Z,102011.62
2018-11-14T16:52:17.981Z,102020.00
2018-11-14T16:54:45.318Z,102013.62
2018-11-14T16:57:12.833Z,102017.95
2018-11-14T16:59:40.301Z,102014.67
2018-11-14T17:02:07.780Z,102013.52
2018-11-14T17:04:35.141Z,102010.32
2018-11-14T17:07:02.480Z,102006.34
2018-11-14T17:09:29.972Z,102004.14
2018-11-14T17:11:57.332Z,102004.86
2018-11-14T17:14:24.726Z,102011.16
2018-11-14T17:16:52.186Z,102020.16
2018-11-14T17:19:19.798Z,102020.72
2018-11-14T17:21:47.236Z,102022.92
2018-11-14T17:24:14.714Z,102018.95
2018-11-14T17:26:43.092Z,102023.08
2018-11-14T17:29:10.502Z,102023.68
2018-11-14T17:31:38.016Z,102024.92
2018-11-14T17:34:05.462Z,102027.73
2018-11-14T17:36:32.899Z,102024.92
2018-11-14T17:39:00.372Z,102027.06
2018-11-14T17:41:27.762Z,102026.58
2018-11-14T17:43:55.138Z,102021.97
2018-11-14T17:46:22.772Z,102028.83
2018-11-14T17:48:50.664Z,102025.34
2018-11-14T17:51:18.106Z,102032.84
2018-11-14T17:53:45.432Z,102029.18
2018-11-14T17:56:12.809Z,102027.14
2018-11-14T17:58:40.164Z,102024.81
2018-11-14T18:01:07.556Z,102024.13
2018-11-14T18:03:35.017Z,102023.09
2018-11-14T18:06:02.411Z,102019.71
2018-11-14T18:08:30.349Z,102018.39
2018-11-14T18:10:57.737Z,102019.03
2018-11-14T18:13:25.259Z,102012.33
2018-11-14T18:15:52.693Z,102022.20
2018-11-14T18:18:20.301Z,102015.73
2018-11-14T18:20:47.672Z,102020.08
2018-11-14T18:23:15.361Z,102022.03
2018-11-14T18:25:42.821Z,102020.42
2018-11-14T18:28:10.184Z,102025.80
2018-11-14T18:30:37.759Z,102033.67
2018-11-14T18:33:05.262Z,102027.64
2018-11-14T18:35:32.692Z,102029.26
2018-11-14T18:38:00.882Z,102029.13
2018-11-14T18:40:29.713Z,102026.14
2018-11-14T18:42:57.137Z,102026.06
2018-11-14T18:45:26.702Z,102027.58
2018-11-14T18:47:55.006Z,102023.68
2018-11-14T18:50:23.053Z,102023.20
2018-11-14T18:52:50.850Z,102023.23
2018-11-14T18:55:19.600Z,102022.61
2018-11-14T18:57:47.985Z,102019.63
2018-11-14T19:00:18.542Z,102012.28
2018-11-14T19:02:46.145Z,102018.46
2018-11-14T19:05:14.292Z,102025.19
2018-11-14T19:07:42.093Z,102033.91
2018-11-14T19:10:11.319Z,102039.05
2018-11-14T19:12:39.385Z,102041.81
2018-11-14T19:15:12.771Z,102034.72
2018-11-14T19:17:40.524Z,102034.20
2018-11-14T19:20:10.299Z,102038.96
2018-11-14T19:22:37.807Z,102038.72
2018-11-14T19:25:06.639Z,102031.28
2018-11-14T19:27:34.081Z,102032.41
2018-11-14T19:30:01.437Z,102035.91
2018-11-14T19:32:28.803Z,102043.23
2018-11-14T19:34:56.190Z,102044.83
2018-11-14T19:37:23.534Z,102050.46
2018-11-14T19:39:51.053Z,102049.30
2018-11-14T19:42:18.592Z,102051.72
2018-11-14T19:44:45.987Z,102052.66
2018-11-14T19:47:13.356Z,102040.37
2018-11-14T19:49:40.816Z,102038.10
2018-11-14T19:52:08.808Z,102038.36
2018-11-14T19:54:36.273Z,102025.12
2018-11-14T19:57:03.780Z,102016.66
2018-11-14T19:59:31.170Z,102022.21
2018-11-14T20:01:58.631Z,102028.45
2018-11-14T20:04:26.022Z,102034.58
2018-11-14T20:06:53.446Z,102027.22
2018-11-14T20:09:20.924Z,102031.53
2018-11-14T20:11:48.340Z,102034.11
2018-11-14T20:14:15.716Z,102036.55
2018-11-14T20:16:43.062Z,102034.86
2018-11-14T20:19:10.468Z,102030.85
2018-11-14T20:21:38.879Z,102033.91
2018-11-14T20:24:06.283Z,102028.17
2018-11-14T20:26:33.741Z,102032.59
2018-11-14T20:29:01.188Z,102028.69
2018-11-14T20:31:28.749Z,102033.73
2018-11-14T20:33:56.093Z,102032.92
2018-11-14T20:36:23.541Z,102031.97
2018-11-14T20:38:50.882Z,102031.45
2018-11-14T20:41:18.324Z,102029.15
2018-11-14T20:43:45.648Z,102029.50
2018-11-14T20:46:13.077Z,102033.06
2018-11-14T20:48:40.480Z,102041.36
2018-11-14T20:51:07.991Z,102038.66
2018-11-14T20:53:35.349Z,102028.30
2018-11-14T20:56:02.823Z,102026.78
2018-11-14T20:58:30.305Z,102024.64
2018-11-14T21:00:57.782Z,102028.55
2018-11-14T21:03:25.239Z,102024.14
2018-11-14T21:05:52.635Z,102024.48
2018-11-14T21:08:20.019Z,102026.75
2018-11-14T21:10:47.480Z,102031.67
2018-11-14T21:13:14.931Z,102031.67
2018-11-14T21:15:42.417Z,102029.36
2018-11-14T21:18:09.862Z,102033.44
2018-11-14T21:20:37.331Z,102037.66
2018-11-14T21:23:04.958Z,102043.31
2018-11-14T21:25:32.328Z,102034.31
2018-11-14T21:27:59.781Z,102043.53
2018-11-14T21:30:28.387Z,102041.89
2018-11-14T21:32:55.786Z,102045.44
2018-11-14T21:35:29.806Z,102044.55
2018-11-14T21:38:00.539Z,102044.64
2018-11-14T21:40:28.369Z,102047.55
2018-11-14T21:42:56.009Z,102046.64
2018-11-14T21:45:24.732Z,102037.16
2018-11-14T21:47:58.640Z,102040.50
2018-11-14T21:50:27.155Z,102041.31
2018-11-14T21:52:55.129Z,102040.20
2018-11-14T21:55:23.250Z,102039.85
2018-11-14T21:57:50.596Z,102039.28
2018-11-14T22:00:20.367Z,102034.14
2018-11-14T22:02:49.245Z,102036.18
2018-11-14T22:05:16.644Z,102033.52
2018-11-14T22:07:44.101Z,102026.09
2018-11-14T22:10:13.817Z,102028.91
2018-11-14T22:12:41.871Z,102023.94
2018-11-14T22:15:11.499Z,102027.95
2018-11-14T22:17:39.485Z,102021.89
2018-11-14T22:20:09.139Z,102019.28
2018-11-14T22:22:36.530Z,102021.25
2018-11-14T22:25:03.895Z,102024.72
2018-11-14T22:27:31.383Z,102024.89
2018-11-14T22:29:58.938Z,102020.39
2018-11-14T22:32:27.018Z,102014.18
2018-11-14T22:34:54.578Z,102013.80
2018-11-14T22:37:22.326Z,102022.81
2018-11-14T22:39:50.006Z,102025.02
2018-11-14T22:42:17.407Z,102019.57
2018-11-14T22:44:44.775Z,102021.89
2018-11-14T22:47:12.193Z,102029.02
2018-11-14T22:49:39.625Z,102028.69
2018-11-14T22:52:07.096Z,102029.72
2018-11-14T22:54:35.038Z,102022.28
2018-11-14T22:57:02.464Z,102035.95
2018-11-14T22:59:29.884Z,102035.02
2018-11-14T23:01:57.386Z,102036.81
2018-11-14T23:04:24.830Z,102033.13
2018-11-14T23:06:52.406Z,102029.84
2018-11-14T23:09:19.766Z,102029.92
2018-11-14T23:11:47.294Z,102030.50
2018-11-14T23:14:14.744Z,102026.39
2018-11-14T23:16:42.221Z,102029.44
2018-11-14T23:19:09.681Z,102027.41
2018-11-14T23:21:37.013Z,102031.00
2018-11-14T23:24:04.888Z,102027.47
2018-11-14T23:26:32.272Z,102028.23
2018-11-14T23:28:59.648Z,102018.74
2018-11-14T23:31:27.038Z,102018.24
2018-11-14T23:33:54.402Z,102014.14
2018-11-14T23:36:21.784Z,102017.08
2018-11-14T23:38:49.120Z,102018.52
2018-11-14T23:41:16.587Z,102007.06
2018-11-14T23:43:44.052Z,102008.49
2018-11-14T23:46:11.414Z,102004.13
2018-11-14T23:48:38.818Z,102003.59
2018-11-14T23:51:06.294Z,102002.02
2018-11-14T23:53:33.726Z,101998.51
2018-11-14T23:56:01.249Z,101989.22
2018-11-14T23:58:28.632Z,101994.27
